Time;durP1;ratioP1;P1;durP2;ratioP2;P2;SDS_P1;SDS_P2;PMS_P1;PMS_P2;Temp;Humidity;BMP_temperature;BMP_pressure;BME280_temperature;BME280_humidity;BME280_pressure;Samples;Min_cycle;Max_cycle;Signal;HPM_P1;HPM_P2
2021/11/09 00:00:53;;;;;;;65.75;28.60;;;;;;;3.26;100.00;101905.19;5010988;28;20049;-68
2021/11/09 00:03:21;;;;;;;62.83;28.50;;;;;;;3.22;100.00;101908.09;5009000;28;20056;-68
2021/11/09 00:05:52;;;;;;;61.60;28.65;;;;;;;3.00;100.00;101926.94;5010803;28;20448;-69
2021/11/09 00:08:24;;;;;;;75.35;29.83;;;;;;;2.86;100.00;101922.44;5008788;28;20120;-69
2021/11/09 00:10:54;;;;;;;63.55;27.73;;;;;;;2.60;100.00;101922.09;5010927;28;20437;-69
2021/11/09 00:13:22;;;;;;;57.08;24.80;;;;;;;2.52;100.00;101919.03;5013248;28;20042;-69
2021/11/09 00:15:52;;;;;;;54.63;24.48;;;;;;;2.73;100.00;101920.47;5010852;28;20425;-69
2021/11/09 00:18:20;;;;;;;65.28;26.13;;;;;;;2.77;100.00;101926.44;5008606;28;20464;-69
2021/11/09 00:20:49;;;;;;;55.03;23.98;;;;;;;2.58;100.00;101934.53;5013297;28;20045;-68
2021/11/09 00:23:17;;;;;;;68.03;26.20;;;;;;;2.69;100.00;101926.84;5011856;28;20049;-69
2021/11/09 00:25:45;;;;;;;71.53;27.17;;;;;;;2.85;100.00;101929.50;5012629;28;20050;-69
2021/11/09 00:28:16;;;;;;;69.13;26.63;;;;;;;2.96;100.00;101934.16;5005100;28;20385;-69
2021/11/09 00:30:43;;;;;;;65.72;28.20;;;;;;;3.04;100.00;101929.31;5011726;28;20045;-68
2021/11/09 00:33:11;;;;;;;68.90;28.02;;;;;;;2.89;100.00;101933.69;5010872;28;20046;-68
2021/11/09 00:35:40;;;;;;;66.20;27.60;;;;;;;2.73;100.00;101927.53;5010385;28;20054;-68
2021/11/09 00:38:10;;;;;;;57.13;27.55;;;;;;;2.57;100.00;101933.66;5010539;28;20053;-68
2021/11/09 00:40:39;;;;;;;56.13;26.00;;;;;;;2.52;100.00;101930.44;5012842;28;20054;-68
2021/11/09 00:43:09;;;;;;;60.58;26.20;;;;;;;2.46;100.00;101935.19;5010264;28;20045;-68
2021/11/09 00:45:38;;;;;;;48.80;26.02;;;;;;;2.49;100.00;101940.28;5012272;28;20095;-68
2021/11/09 00:48:06;;;;;;;51.10;25.98;;;;;;;2.41;100.00;101933.66;5008004;28;20092;-68
2021/11/09 00:50:36;;;;;;;54.53;25.98;;;;;;;2.28;100.00;101929.94;5011580;28;20041;-68
2021/11/09 00:53:04;;;;;;;55.60;22.50;;;;;;;2.09;100.00;101924.81;5011798;28;20128;-68
2021/11/09 00:55:33;;;;;;;50.88;22.92;;;;;;;2.46;100.00;101929.91;5010213;28;20108;-68
2021/11/09 00:58:01;;;;;;;58.33;23.08;;;;;;;2.63;100.00;101927.19;5009608;28;20037;-68
2021/11/09 01:00:32;;;;;;;49.10;22.45;;;;;;;2.79;100.00;101931.63;5010112;28;20044;-68
2021/11/09 01:03:04;;;;;;;52.80;23.58;;;;;;;2.61;100.00;101938.75;5010488;28;20406;-69
2021/11/09 01:05:33;;;;;;;52.55;22.90;;;;;;;2.41;100.00;101944.19;5010650;28;20038;-69
2021/11/09 01:08:03;;;;;;;51.55;22.35;;;;;;;2.53;100.00;101941.84;5007698;28;20361;-68
2021/11/09 01:10:41;;;;;;;60.92;23.27;;;;;;;2.61;100.00;101938.75;5010204;28;20319;-68
2021/11/09 01:13:09;;;;;;;59.88;22.80;;;;;;;2.72;100.00;101931.97;5012194;28;20100;-68
2021/11/09 01:15:40;;;;;;;47.85;21.23;;;;;;;2.86;100.00;101939.09;5010357;28;20337;-71
2021/11/09 01:18:09;;;;;;;42.30;21.63;;;;;;;2.97;100.00;101935.88;5007310;28;20053;-70
2021/11/09 01:20:38;;;;;;;50.53;20.60;;;;;;;2.88;100.00;101931.13;5011599;28;20096;-69
2021/11/09 01:23:06;;;;;;;53.75;23.55;;;;;;;2.91;100.00;101930.97;5011415;28;20038;-70
2021/11/09 01:25:34;;;;;;;43.08;20.00;;;;;;;2.89;100.00;101928.41;5011202;28;20377;-70
2021/11/09 01:28:03;;;;;;;54.42;22.38;;;;;;;2.92;100.00;101924.72;5007163;28;20072;-69
2021/11/09 01:30:31;;;;;;;47.00;21.17;;;;;;;3.04;100.00;101915.28;5010999;28;20037;-69
2021/11/09 01:32:59;;;;;;;46.55;20.48;;;;;;;3.12;100.00;101920.09;5010380;28;20065;-70
2021/11/09 01:35:28;;;;;;;51.10;21.30;;;;;;;3.04;100.00;101913.47;5008982;28;20656;-69
2021/11/09 01:37:56;;;;;;;52.25;21.50;;;;;;;2.71;100.00;101924.16;5011578;28;20042;-69
2021/11/09 01:40:26;;;;;;;42.88;19.58;;;;;;;2.64;100.00;101921.00;5009078;28;20046;-69
2021/11/09 01:42:55;;;;;;;53.67;21.95;;;;;;;2.71;100.00;101917.09;5010114;28;20524;-70
2021/11/09 01:45:24;;;;;;;53.05;22.13;;;;;;;2.80;100.00;101917.50;5010512;28;20045;-70
2021/11/09 01:47:52;;;;;;;47.05;21.92;;;;;;;2.71;100.00;101916.25;5009225;28;20438;-70
2021/11/09 01:50:26;;;;;;;42.00;20.70;;;;;;;2.41;100.00;101917.84;5007826;28;20053;-69
2021/11/09 01:52:55;;;;;;;49.45;22.08;;;;;;;2.61;100.00;101912.38;5010538;28;20034;-70
2021/11/09 01:55:25;;;;;;;52.08;21.25;;;;;;;2.66;100.00;101921.75;5010125;28;20049;-69
2021/11/09 01:57:54;;;;;;;56.13;22.40;;;;;;;2.58;100.00;101916.06;5009178;28;20049;-69
2021/11/09 02:00:25;;;;;;;45.78;23.08;;;;;;;2.66;100.00;101916.47;5008257;28;20460;-69
2021/11/09 02:02:53;;;;;;;48.03;21.10;;;;;;;2.57;100.00;101917.00;5009323;28;20069;-69
2021/11/09 02:05:22;;;;;;;53.38;22.58;;;;;;;2.42;100.00;101913.41;5009470;28;20108;-69
2021/11/09 02:07:51;;;;;;;49.28;21.65;;;;;;;2.41;100.00;101912.56;5010489;28;20061;-70
2021/11/09 02:10:24;;;;;;;56.97;22.45;;;;;;;2.52;100.00;101921.66;5010226;28;20498;-70
2021/11/09 02:12:52;;;;;;;55.40;22.15;;;;;;;2.52;100.00;101914.63;5009465;28;20050;-70
2021/11/09 02:15:21;;;;;;;52.60;21.98;;;;;;;2.57;100.00;101920.47;5009057;28;20046;-69
2021/11/09 02:17:50;;;;;;;56.70;22.00;;;;;;;2.62;100.00;101914.09;5008166;28;20048;-69
2021/11/09 02:20:21;;;;;;;43.65;20.27;;;;;;;2.60;100.00;101915.97;5006898;28;20469;-69
2021/11/09 02:22:50;;;;;;;50.05;20.67;;;;;;;2.48;100.00;101918.34;5010542;28;20049;-70
2021/11/09 02:25:20;;;;;;;43.10;19.23;;;;;;;2.58;100.00;101910.81;5009461;28;20049;-70
2021/11/09 02:27:48;;;;;;;47.17;18.85;;;;;;;2.56;100.00;101915.28;5010246;28;20327;-69
2021/11/09 02:30:18;;;;;;;50.85;19.45;;;;;;;2.62;100.00;101911.47;5006697;28;20041;-70
2021/11/09 02:32:46;;;;;;;47.47;19.13;;;;;;;2.86;100.00;101909.25;5008261;28;20041;-69
2021/11/09 02:35:14;;;;;;;47.35;19.63;;;;;;;2.85;100.00;101913.69;5009749;28;20091;-69
2021/11/09 02:37:42;;;;;;;46.65;18.88;;;;;;;2.86;100.00;101911.88;5009360;28;20068;-70
2021/11/09 02:40:13;;;;;;;38.10;19.05;;;;;;;2.90;100.00;101908.13;5007573;28;20057;-69
2021/11/09 02:42:43;;;;;;;39.17;17.83;;;;;;;3.01;100.00;101903.09;5009730;28;20046;-69
2021/11/09 02:45:18;;;;;;;43.80;19.42;;;;;;;2.88;100.00;101905.59;5008806;28;20068;-69
2021/11/09 02:47:50;;;;;;;50.10;19.50;;;;;;;2.79;100.00;101905.25;5008595;28;20046;-69
2021/11/09 02:50:20;;;;;;;47.20;19.83;;;;;;;2.84;100.00;101903.22;5007615;28;20050;-69
2021/11/09 02:52:54;;;;;;;43.78;19.65;;;;;;;2.81;100.00;101896.31;5008078;28;20449;-69
2021/11/09 02:55:29;;;;;;;47.40;20.38;;;;;;;2.85;100.00;101900.50;5009883;28;20046;-70
2021/11/09 02:58:03;;;;;;;49.60;19.23;;;;;;;2.95;100.00;101894.69;5009541;28;20046;-69
2021/11/09 03:00:35;;;;;;;43.35;19.33;;;;;;;2.93;100.00;101893.00;5007572;28;20046;-69
2021/11/09 03:03:06;;;;;;;42.42;17.98;;;;;;;2.88;100.00;101888.91;5009527;28;20042;-69
2021/11/09 03:05:43;;;;;;;42.67;19.75;;;;;;;2.77;100.00;101886.88;5004456;28;20057;-69
2021/11/09 03:08:23;;;;;;;43.65;17.75;;;;;;;2.63;100.00;101885.00;5008010;28;20045;-70
2021/11/09 03:10:54;;;;;;;44.05;18.60;;;;;;;2.67;100.00;101885.69;5010754;28;20045;-70
2021/11/09 03:13:23;;;;;;;39.30;17.88;;;;;;;2.69;100.00;101889.91;5007132;28;20437;-69
2021/11/09 03:15:52;;;;;;;44.40;16.30;;;;;;;2.70;100.00;101898.72;5006578;28;20037;-70
2021/11/09 03:18:23;;;;;;;38.42;17.15;;;;;;;2.78;100.00;101896.50;5004989;28;20393;-70
2021/11/09 03:20:56;;;;;;;42.03;17.85;;;;;;;2.89;100.00;101895.88;5009556;28;20045;-69
2021/11/09 03:40:28;;;;;;;35.03;14.57;;;;;;;2.62;100.00;101900.91;5009630;28;20450;-69
2021/11/09 03:45:44;;;;;;;40.42;16.42;;;;;;;2.75;100.00;101905.44;5011883;28;20053;-68
2021/11/09 03:48:14;;;;;;;38.17;16.92;;;;;;;2.59;100.00;101909.84;5009795;28;20088;-69
2021/11/09 03:50:44;;;;;;;41.55;16.45;;;;;;;2.49;100.00;101908.66;5014361;28;20069;-69
2021/11/09 03:53:16;;;;;;;44.25;16.42;;;;;;;2.79;100.00;101910.53;5011802;28;20045;-68
2021/11/09 03:56:06;;;;;;;37.50;15.93;;;;;;;2.90;100.00;101913.41;5013014;28;20127;-68
2021/11/09 03:58:38;;;;;;;35.92;14.52;;;;;;;2.91;100.00;101915.97;5010002;28;20424;-68
2021/11/09 04:01:09;;;;;;;41.83;15.27;;;;;;;3.13;100.00;101914.75;5011434;28;20045;-68
2021/11/09 04:03:49;;;;;;;35.38;15.75;;;;;;;3.23;100.00;101921.22;5011741;28;20038;-69
2021/11/09 04:06:30;;;;;;;46.08;15.60;;;;;;;3.23;100.00;101915.94;5012420;28;20422;-68
2021/11/09 04:09:03;;;;;;;37.08;15.18;;;;;;;3.25;100.00;101918.47;5008780;28;20185;-68
2021/11/09 04:11:37;;;;;;;39.55;15.65;;;;;;;3.23;100.00;101920.34;5013396;28;20465;-68
2021/11/09 04:14:14;;;;;;;42.38;16.50;;;;;;;3.24;100.00;101914.97;5011099;28;20050;-69
2021/11/09 04:16:47;;;;;;;35.97;15.88;;;;;;;3.16;100.00;101911.06;5012063;28;20049;-68
2021/11/09 04:19:25;;;;;;;45.33;15.40;;;;;;;3.01;100.00;101920.75;5008918;28;20050;-69
2021/11/09 04:24:59;;;;;;;39.83;13.80;;;;;;;2.88;100.00;101931.13;4998506;28;20108;-69
2021/11/09 04:27:34;;;;;;;28.95;13.35;;;;;;;2.85;100.00;101926.88;5012632;28;20108;-69
2021/11/09 04:30:32;;;;;;;37.57;14.50;;;;;;;3.05;100.00;101930.19;5009963;28;20045;-68
2021/11/09 04:33:50;;;;;;;32.15;14.57;;;;;;;3.25;100.00;101926.41;5009839;28;20053;-68
2021/11/09 04:53:40;;;;;;;30.55;14.32;;;;;;;3.05;100.00;101932.81;4944718;28;20054;-69
2021/11/09 05:02:01;;;;;;;35.75;13.15;;;;;;;2.79;100.00;101931.63;5008856;28;20049;-68
2021/11/09 05:10:05;;;;;;;32.35;13.38;;;;;;;2.88;100.00;101936.41;5007902;28;20463;-69
2021/11/09 05:12:32;;;;;;;29.17;13.30;;;;;;;3.12;100.00;101928.03;5012120;28;20038;-68
2021/11/09 05:15:00;;;;;;;36.45;12.95;;;;;;;3.16;100.00;101940.13;5011750;28;20122;-68
2021/11/09 05:17:28;;;;;;;29.35;12.32;;;;;;;3.03;100.00;101943.44;5009581;28;20046;-68
2021/11/09 05:19:58;;;;;;;33.75;12.20;;;;;;;2.90;100.00;101942.44;5009994;28;20042;-68
2021/11/09 05:22:26;;;;;;;28.20;12.05;;;;;;;2.86;100.00;101944.38;5010205;28;20054;-69
2021/11/09 05:24:54;;;;;;;28.98;12.55;;;;;;;2.89;100.00;101946.88;5012017;28;20045;-69
2021/11/09 05:27:25;;;;;;;28.00;12.10;;;;;;;3.05;100.00;101949.50;5010971;28;20196;-69
2021/11/09 05:29:54;;;;;;;34.05;11.52;;;;;;;3.04;100.00;101958.34;5009114;28;20046;-69
2021/11/09 05:32:22;;;;;;;29.70;10.88;;;;;;;3.14;100.00;101947.28;5009594;28;20050;-69
2021/11/09 05:34:50;;;;;;;29.40;11.23;;;;;;;3.21;100.00;101943.34;5011002;28;20437;-68
2021/11/09 05:37:23;;;;;;;41.25;11.75;;;;;;;3.36;100.00;101946.88;5008800;28;20053;-68
2021/11/09 05:39:53;;;;;;;37.00;12.80;;;;;;;3.44;100.00;101936.75;5008112;28;20038;-69
2021/11/09 05:42:21;;;;;;;33.30;11.88;;;;;;;3.58;100.00;101941.22;5009005;28;20445;-68
2021/11/09 05:44:49;;;;;;;28.08;10.48;;;;;;;3.54;100.00;101934.41;5010650;28;20054;-68
2021/11/09 05:47:17;;;;;;;26.67;11.10;;;;;;;3.43;100.00;101941.19;5009960;28;20069;-68
2021/11/09 05:49:45;;;;;;;39.72;11.82;;;;;;;3.43;100.00;101943.81;5007338;28;20053;-69
2021/11/09 05:52:13;;;;;;;30.70;12.18;;;;;;;3.33;100.00;101934.75;5011493;28;20103;-68
2021/11/09 05:54:42;;;;;;;39.67;11.88;;;;;;;3.26;100.00;101936.88;5023640;28;20089;-69
2021/11/09 05:57:10;;;;;;;31.45;11.75;;;;;;;3.17;100.00;101937.38;5010293;28;20042;-69
2021/11/09 05:59:38;;;;;;;31.38;11.32;;;;;;;3.24;100.00;101937.91;5009217;28;20057;-68
2021/11/09 06:02:06;;;;;;;31.65;11.30;;;;;;;3.17;100.00;101940.03;5003871;28;20037;-69
2021/11/09 06:04:35;;;;;;;37.08;11.40;;;;;;;3.21;100.00;101944.19;5010957;28;20072;-69
2021/11/09 06:07:03;;;;;;;31.15;11.82;;;;;;;3.15;100.00;101954.25;5009021;28;20111;-69
2021/11/09 06:09:31;;;;;;;32.88;11.77;;;;;;;3.18;100.00;101957.56;5003834;28;20050;-69
2021/11/09 06:12:01;;;;;;;27.25;10.38;;;;;;;3.19;100.00;101958.41;5010817;28;20422;-68
2021/11/09 06:14:29;;;;;;;28.42;10.40;;;;;;;3.21;100.00;101959.19;5006906;28;20061;-69
2021/11/09 06:16:58;;;;;;;28.90;11.05;;;;;;;3.27;100.00;101956.19;5008454;28;20044;-69
2021/11/09 06:19:26;;;;;;;26.23;10.90;;;;;;;3.23;100.00;101960.81;5008354;28;20406;-68
2021/11/09 06:21:54;;;;;;;33.22;11.48;;;;;;;3.33;100.00;101958.50;5007347;28;20077;-69
2021/11/09 06:24:23;;;;;;;31.67;10.93;;;;;;;3.26;100.00;101960.63;5009750;28;20054;-69
2021/11/09 06:26:52;;;;;;;26.48;11.15;;;;;;;3.16;100.00;101961.22;5006399;28;20044;-69
2021/11/09 06:29:22;;;;;;;35.67;10.65;;;;;;;3.13;100.00;101972.81;5004725;28;20531;-69
2021/11/09 06:31:52;;;;;;;25.85;10.68;;;;;;;3.15;100.00;101959.53;5008075;28;20038;-69
2021/11/09 06:34:20;;;;;;;30.23;11.40;;;;;;;3.18;100.00;101969.94;5007384;28;20050;-68
2021/11/09 06:36:48;;;;;;;26.15;11.30;;;;;;;3.09;100.00;101964.22;5010081;28;20441;-69
2021/11/09 06:39:18;;;;;;;25.13;11.88;;;;;;;3.07;100.00;101966.09;5007287;28;20345;-68
2021/11/09 06:41:47;;;;;;;27.00;11.15;;;;;;;3.14;100.00;101961.31;5009236;28;20045;-68
2021/11/09 06:44:18;;;;;;;34.70;12.82;;;;;;;3.14;100.00;101971.88;5011217;28;20345;-69
2021/11/09 06:46:48;;;;;;;32.08;12.57;;;;;;;3.03;100.00;101969.84;5007590;28;20048;-69
2021/11/09 06:49:16;;;;;;;28.23;12.07;;;;;;;3.00;100.00;101972.66;5006297;28;20034;-69
2021/11/09 06:51:44;;;;;;;28.90;11.35;;;;;;;3.21;100.00;101980.31;5009935;28;20057;-69
2021/11/09 06:54:12;;;;;;;27.35;11.55;;;;;;;3.19;100.00;101976.91;5009431;28;20042;-68
2021/11/09 06:56:40;;;;;;;27.58;11.77;;;;;;;3.30;100.00;101984.22;5010512;28;20049;-68
2021/11/09 06:59:09;;;;;;;36.45;11.85;;;;;;;3.38;100.00;101988.13;5005026;28;20822;-68
2021/11/09 07:01:37;;;;;;;27.25;13.02;;;;;;;3.40;100.00;101988.91;5008166;28;20052;-69
2021/11/09 07:04:06;;;;;;;31.15;11.75;;;;;;;3.39;100.00;101997.75;5010465;28;20066;-68
2021/11/09 07:06:34;;;;;;;23.77;11.80;;;;;;;3.39;100.00;101999.56;5008421;28;20034;-68
2021/11/09 07:09:02;;;;;;;32.85;13.27;;;;;;;3.61;100.00;101997.38;5007626;28;20046;-68
2021/11/09 07:11:31;;;;;;;33.15;13.10;;;;;;;3.72;100.00;101996.75;5009094;28;20052;-68
2021/11/09 07:13:59;;;;;;;31.42;11.68;;;;;;;3.86;100.00;102000.38;5009575;28;20069;-68
2021/11/09 07:16:27;;;;;;;27.98;13.10;;;;;;;3.91;100.00;102000.94;5009096;28;20054;-68
2021/11/09 07:19:00;;;;;;;30.42;14.15;;;;;;;3.99;100.00;102003.16;5005993;28;20140;-68
2021/11/09 07:21:30;;;;;;;33.75;14.77;;;;;;;3.96;100.00;102001.53;5008421;28;20074;-69
2021/11/09 07:23:58;;;;;;;37.00;14.25;;;;;;;4.04;100.00;102001.94;5009069;28;20060;-68
2021/11/09 07:26:27;;;;;;;29.45;14.55;;;;;;;4.11;100.00;102005.91;5009876;28;20054;-68
2021/11/09 07:28:57;;;;;;;33.17;13.40;;;;;;;4.23;100.00;102001.66;5007177;28;20049;-69
2021/11/09 07:31:25;;;;;;;26.02;12.30;;;;;;;4.38;100.00;101999.88;5008111;28;20353;-68
2021/11/09 07:33:53;;;;;;;22.45;12.25;;;;;;;4.54;100.00;102005.09;5009295;28;20361;-68
2021/11/09 07:36:21;;;;;;;38.03;14.48;;;;;;;4.61;100.00;102001.09;5010162;28;20054;-68
2021/11/09 07:38:50;;;;;;;24.92;12.10;;;;;;;4.70;100.00;102014.72;5005632;28;20038;-69
2021/11/09 07:41:18;;;;;;;30.35;12.32;;;;;;;4.81;100.00;102015.75;5010874;28;20133;-69
2021/11/09 07:43:46;;;;;;;24.40;11.45;;;;;;;4.86;100.00;102012.78;5008950;28;20397;-68
2021/11/09 07:46:14;;;;;;;29.75;10.50;;;;;;;4.96;100.00;102011.28;5008103;28;20434;-68
2021/11/09 07:48:43;;;;;;;29.60;11.60;;;;;;;5.00;100.00;102017.22;5005490;28;20174;-68
2021/11/09 07:51:11;;;;;;;25.70;10.23;;;;;;;4.86;100.00;102019.91;5008191;28;20052;-69
2021/11/09 07:53:41;;;;;;;27.10;10.35;;;;;;;5.13;100.00;102012.88;5008985;28;20054;-68
2021/11/09 07:56:16;;;;;;;29.00;10.82;;;;;;;5.21;100.00;102009.72;5010179;28;20457;-69
2021/11/09 07:58:52;;;;;;;25.98;11.10;;;;;;;5.32;100.00;102009.03;5004128;28;20379;-68
2021/11/09 08:01:28;;;;;;;23.13;9.90;;;;;;;5.41;100.00;102015.53;5006623;28;20054;-68
2021/11/09 08:04:06;;;;;;;20.73;9.27;;;;;;;5.45;100.00;102023.16;5008213;28;20118;-69
2021/11/09 08:06:45;;;;;;;26.55;9.43;;;;;;;5.58;100.00;102017.06;5008078;28;20311;-68
2021/11/09 08:09:19;;;;;;;18.23;8.57;;;;;;;5.57;100.00;102012.69;5009495;28;20042;-68
2021/11/09 08:11:49;;;;;;;22.63;9.45;;;;;;;5.68;100.00;102015.50;5010626;28;20041;-69
2021/11/09 08:14:17;;;;;;;22.98;9.60;;;;;;;5.58;100.00;102007.31;5012567;28;20060;-66
2021/11/09 08:16:47;;;;;;;24.02;10.10;;;;;;;5.59;100.00;102014.31;5012718;28;20046;-65
2021/11/09 08:19:16;;;;;;;24.73;9.73;;;;;;;5.58;100.00;102019.72;5008002;28;20050;-65
2021/11/09 08:21:44;;;;;;;20.92;8.63;;;;;;;5.70;100.00;102021.56;5012487;28;20045;-66
2021/11/09 08:24:15;;;;;;;21.80;8.85;;;;;;;5.82;100.00;102020.72;5012269;28;20054;-65
2021/11/09 08:26:43;;;;;;;17.92;8.80;;;;;;;5.89;100.00;102012.38;5011707;28;20049;-65
2021/11/09 08:29:13;;;;;;;21.58;8.30;;;;;;;5.87;100.00;102015.13;5010250;28;20050;-65
2021/11/09 08:31:44;;;;;;;17.90;9.23;;;;;;;6.07;100.00;102023.56;5009644;28;20322;-65
2021/11/09 08:34:12;;;;;;;17.60;8.70;;;;;;;6.16;100.00;102023.78;5012138;28;20052;-65
2021/11/09 08:36:44;;;;;;;19.75;7.72;;;;;;;6.37;100.00;102013.50;5013300;28;20450;-65
2021/11/09 08:39:18;;;;;;;17.85;7.57;;;;;;;6.25;100.00;102022.31;5009160;28;20434;-65
2021/11/09 08:41:48;;;;;;;17.23;8.80;;;;;;;6.42;100.00;102023.81;5011291;28;20074;-65
2021/11/09 08:44:20;;;;;;;20.55;8.95;;;;;;;6.45;100.00;102022.72;5011572;28;20042;-65
2021/11/09 08:46:50;;;;;;;17.50;8.00;;;;;;;6.44;100.00;102021.06;5009764;28;20041;-66
2021/11/09 08:49:19;;;;;;;22.42;9.57;;;;;;;6.23;100.00;102024.22;5009367;28;20449;-66
2021/11/09 08:51:49;;;;;;;16.92;8.40;;;;;;;6.36;100.00;102024.22;5010884;28;20046;-66
2021/11/09 08:54:21;;;;;;;17.95;7.63;;;;;;;6.35;100.00;102018.06;5009755;28;20045;-65
2021/11/09 09:05:09;;;;;;;19.75;7.43;;;;;;;7.13;100.00;102018.81;5012546;28;20319;-68
2021/11/09 09:07:38;;;;;;;21.92;7.55;;;;;;;7.96;100.00;102027.75;5009479;28;20038;-68
2021/11/09 09:10:08;;;;;;;21.13;7.15;;;;;;;7.68;100.00;102013.91;5007852;28;20042;-69
2021/11/09 09:12:37;;;;;;;17.27;6.97;;;;;;;7.96;100.00;102014.44;5011248;28;20046;-69
2021/11/09 09:15:08;;;;;;;23.85;6.93;;;;;;;7.91;100.00;102014.81;5010231;28;20116;-69
2021/11/09 09:17:36;;;;;;;17.48;7.03;;;;;;;7.95;100.00;102015.41;5011235;28;20057;-68
2021/11/09 09:20:10;;;;;;;15.88;7.07;;;;;;;8.20;100.00;102017.03;5006964;28;20038;-69
2021/11/09 09:22:41;;;;;;;17.88;7.13;;;;;;;8.26;100.00;102021.03;5010868;28;20454;-68
2021/11/09 09:25:23;;;;;;;18.33;7.63;;;;;;;8.17;100.00;102019.09;5011625;28;20048;-68
2021/11/09 09:28:24;;;;;;;12.88;6.75;;;;;;;8.23;100.00;102010.66;5010365;28;20334;-68
2021/11/09 09:31:10;;;;;;;19.20;7.50;;;;;;;8.30;100.00;102021.66;5008755;28;20112;-68
2021/11/09 09:53:13;;;;;;;14.52;8.27;;;;;;;7.69;100.00;102043.97;5011293;28;20350;-69
2021/11/09 09:55:41;;;;;;;16.92;7.72;;;;;;;7.72;100.00;102041.09;5009100;28;20096;-68
2021/11/09 09:58:11;;;;;;;21.48;7.68;;;;;;;7.96;100.00;102040.22;5011373;28;20315;-68
2021/11/09 10:00:40;;;;;;;17.88;7.00;;;;;;;8.14;100.00;102041.47;5007033;28;20038;-68
2021/11/09 10:03:09;;;;;;;27.95;9.00;;;;;;;8.22;100.00;102043.53;5006647;28;20147;-68
2021/11/09 10:05:39;;;;;;;15.27;7.35;;;;;;;8.36;100.00;102039.81;5011360;28;20413;-68
2021/11/09 10:08:15;;;;;;;18.15;7.80;;;;;;;8.24;100.00;102042.47;5009926;28;20322;-69
2021/11/09 10:10:44;;;;;;;14.18;6.35;;;;;;;8.64;100.00;102043.03;5008875;28;20046;-69
2021/11/09 10:13:13;;;;;;;13.95;6.28;;;;;;;8.43;100.00;102047.22;5011219;28;20049;-69
2021/11/09 10:15:45;;;;;;;17.02;6.72;;;;;;;8.87;100.00;102039.38;5008879;28;20044;-69
2021/11/09 10:18:16;;;;;;;12.73;6.47;;;;;;;9.62;100.00;102044.91;5009706;28;20069;-69
2021/11/09 10:20:47;;;;;;;18.23;7.13;;;;;;;10.00;100.00;102036.38;5009806;28;20042;-69
2021/11/09 10:23:17;;;;;;;13.50;5.57;;;;;;;9.59;100.00;102040.69;5010975;28;20053;-69
2021/11/09 10:25:45;;;;;;;16.90;6.35;;;;;;;10.08;100.00;102032.22;5011010;28;20318;-69
2021/11/09 10:28:18;;;;;;;16.17;6.30;;;;;;;9.81;100.00;102030.91;5009594;28;20480;-69
2021/11/09 10:30:50;;;;;;;13.75;6.28;;;;;;;10.45;100.00;102034.47;5008987;28;20664;-68
2021/11/09 10:33:23;;;;;;;11.15;5.65;;;;;;;11.11;100.00;102031.31;5008953;28;20056;-69
2021/11/09 10:35:51;;;;;;;16.85;4.85;;;;;;;10.31;100.00;102023.09;5008021;28;20045;-69
2021/11/09 10:38:29;;;;;;;10.88;5.40;;;;;;;10.33;100.00;102021.16;5008457;28;20126;-69
2021/11/09 10:40:58;;;;;;;15.63;5.40;;;;;;;10.07;100.00;102030.53;5008379;28;20441;-69
2021/11/09 10:43:27;;;;;;;16.35;5.35;;;;;;;9.09;100.00;102027.03;5010317;28;20898;-69
2021/11/09 10:45:55;;;;;;;15.45;6.35;;;;;;;9.44;100.00;102036.59;5009675;28;20045;-69
2021/11/09 10:48:25;;;;;;;16.90;6.25;;;;;;;9.11;100.00;102030.41;5006271;28;20366;-69
2021/11/09 10:50:54;;;;;;;18.65;5.35;;;;;;;9.11;100.00;102035.72;5009233;28;20057;-69
2021/11/09 10:53:30;;;;;;;12.45;5.63;;;;;;;9.17;100.00;102035.25;5010188;28;20045;-69
2021/11/09 10:56:06;;;;;;;18.25;5.75;;;;;;;9.24;100.00;102031.13;5008734;28;20054;-69
2021/11/09 10:58:59;;;;;;;17.02;5.75;;;;;;;9.37;100.00;102035.41;5009245;28;20072;-68
2021/11/09 11:04:13;;;;;;;13.27;6.20;;;;;;;9.30;100.00;102032.44;5007560;28;20042;-69
2021/11/09 11:06:44;;;;;;;16.63;6.75;;;;;;;9.25;100.00;102035.44;5009945;28;20322;-68
2021/11/09 11:09:21;;;;;;;18.45;6.25;;;;;;;9.40;100.00;102037.84;5007723;28;20054;-68
2021/11/09 11:12:09;;;;;;;16.27;6.85;;;;;;;9.44;100.00;102039.28;5008898;28;20193;-68
2021/11/09 11:14:41;;;;;;;15.38;5.95;;;;;;;9.54;100.00;102028.69;5009474;28;20348;-68
2021/11/09 11:17:11;;;;;;;21.73;5.45;;;;;;;10.19;100.00;102026.81;5007741;28;20341;-68
2021/11/09 11:19:42;;;;;;;13.13;4.85;;;;;;;10.22;100.00;102020.34;5005454;28;20452;-68
2021/11/09 11:22:13;;;;;;;14.20;6.25;;;;;;;10.56;100.00;102022.81;5010892;28;20387;-68
2021/11/09 11:24:42;;;;;;;16.20;5.78;;;;;;;11.10;100.00;102020.75;5008176;28;20334;-69
2021/11/09 11:27:12;;;;;;;16.73;5.22;;;;;;;11.22;100.00;102008.97;5008414;28;20152;-69
2021/11/09 11:29:41;;;;;;;18.42;5.60;;;;;;;11.18;100.00;102007.53;5008734;28;20045;-68
2021/11/09 11:32:11;;;;;;;14.18;5.72;;;;;;;10.79;100.00;102007.47;5007660;28;20441;-68
2021/11/09 11:34:40;;;;;;;13.88;5.10;;;;;;;10.43;100.00;102004.34;5008981;28;20129;-68
2021/11/09 11:37:10;;;;;;;17.08;5.32;;;;;;;10.50;100.00;102006.38;5009358;28;20037;-69
2021/11/09 11:39:39;;;;;;;17.88;6.22;;;;;;;10.82;100.00;102008.03;5005593;28;20193;-68
2021/11/09 11:42:11;;;;;;;15.80;5.72;;;;;;;10.80;100.00;102001.13;5010096;28;20041;-69
2021/11/09 11:44:41;;;;;;;15.60;6.13;;;;;;;10.75;100.00;102006.88;5008031;28;20034;-68
2021/11/09 11:47:18;;;;;;;12.15;5.53;;;;;;;10.96;100.00;102004.13;5011375;28;20065;-69
2021/11/09 11:49:51;;;;;;;16.80;5.53;;;;;;;11.04;100.00;101998.09;5012176;28;20324;-68
2021/11/09 11:52:26;;;;;;;16.52;6.30;;;;;;;11.23;100.00;101994.63;5012613;28;20057;-68
2021/11/09 11:55:09;;;;;;;;;;;;;;;11.26;100.00;101986.31;5012142;28;20481;-68
2021/11/09 11:57:46;;;;;;;12.07;4.97;;;;;;;10.75;100.00;101976.66;5012883;28;19922;-68
2021/11/09 12:00:33;;;;;;;18.15;6.65;;;;;;;10.79;100.00;101975.41;5009621;28;20037;-68
2021/11/09 12:03:03;;;;;;;21.42;6.15;;;;;;;10.87;100.00;101972.88;5011493;28;20045;-68
2021/11/09 12:05:41;;;;;;;15.77;6.10;;;;;;;10.88;100.00;101963.88;5013523;28;20112;-68
2021/11/09 12:08:10;;;;;;;24.48;6.25;;;;;;;10.62;100.00;101971.56;5012387;28;20046;-69
2021/11/09 12:10:48;;;;;;;21.13;6.38;;;;;;;10.38;100.00;101955.84;5011627;28;20046;-68
2021/11/09 12:13:17;;;;;;;20.67;6.53;;;;;;;10.23;100.00;101961.50;5013027;28;20060;-69
2021/11/09 12:15:51;;;;;;;14.60;5.93;;;;;;;10.07;100.00;101967.31;5010893;28;20049;-68
2021/11/09 12:18:42;;;;;;;15.10;7.60;;;;;;;9.57;100.00;101961.78;5011497;28;20429;-68
2021/11/09 12:21:36;;;;;;;17.52;6.13;;;;;;;9.76;100.00;101958.41;5011210;28;20314;-68
2021/11/09 12:24:16;;;;;;;18.17;6.85;;;;;;;9.64;100.00;101955.81;5010826;28;20092;-68
2021/11/09 12:26:50;;;;;;;15.50;6.03;;;;;;;9.72;100.00;101959.66;5012726;28;20123;-68
2021/11/09 12:29:40;;;;;;;18.63;5.97;;;;;;;9.69;100.00;101952.75;5009021;28;20354;-68
2021/11/09 12:32:38;;;;;;;20.27;6.00;;;;;;;9.57;100.00;101951.09;5011082;28;20096;-68
2021/11/09 12:35:22;;;;;;;11.55;5.30;;;;;;;9.72;100.00;101956.97;5009410;28;20042;-68
2021/11/09 12:38:09;;;;;;;15.02;6.22;;;;;;;9.81;100.00;101953.56;5012130;28;20046;-68
2021/11/09 12:40:39;;;;;;;16.15;6.40;;;;;;;10.00;100.00;101947.47;5006084;28;20064;-68
2021/11/09 12:43:26;;;;;;;18.10;6.07;;;;;;;10.18;100.00;101945.06;5011902;28;20042;-68
2021/11/09 12:46:02;;;;;;;15.63;5.32;;;;;;;10.16;100.00;101947.00;5010942;28;20333;-68
2021/11/09 12:48:34;;;;;;;16.67;5.18;;;;;;;10.29;100.00;101936.09;5009008;28;20120;-68
2021/11/09 12:51:04;;;;;;;21.00;6.43;;;;;;;10.43;100.00;101940.25;5011063;28;20042;-69
2021/11/09 12:53:36;;;;;;;16.52;5.22;;;;;;;10.58;100.00;101935.41;5012345;28;20046;-69